Sugar City, CO

10:40 AM MDT on October 02, 2014 (GMT -0600)
Lamar Municipal | Change Station
CLOSE
Current Station
Airport
Location: Lamar,
Elevation: 3704 ft
Nearby Weather Stations

Elev 3704 ft 38.07 °N, 102.69 °W | Updated 47 minutes ago

Clear
Clear
57 °F
Feels Like 57 °F
N
14
Wind Variable Wind from North
Gusts 22 mph

Today
High -- | Low -- °F
--% Chance of Precip.
Yesterday
High -- | Low -- °F
Precip. -- in
6:51 AM 6:35 PM
First Quarter, 60% visible
Pressure 30.04 in
Visibility 10.0 miles
Clouds Clear
Dew Point 40 °F
Humidity 53%
Rainfall 0.00 in
Snow Depth 0 in , 2 in , 0 in
UV 4 out of 12
Pollen 4.00 out of 12
Air Quality Not available.
Flu Activity Not available.
METAR KLAA 021553Z AUTO 35012G19KT 10SM CLR 14/04 A3010 RMK AO2 SLP170 T01390044

More Conditions Fewer Conditions

Pressure 30.04 in
Visibility 10.0 miles
Clouds Clear
Dew Point 40 °F
Humidity 53%
Rainfall 0.00 in
Snow Depth 0 in , 2 in , 0 in
UV 4 out of 12
Pollen 4.00 out of 12
Air Quality Not available.
Flu Activity Not available.
METAR KLAA 021553Z AUTO 35012G19KT 10SM CLR 14/04 A3010 RMK AO2 SLP170 T01390044

More Conditions Fewer Conditions

10-Day Weather Forecast

Almanac

Astronomy

Oct. 02, 2014 Rise Set
Actual Time 6:51 AM MDT 6:35 PM MDT
Civil Twilight 6:24 AM MDT 7:02 PM MDT
Nautical Twilight 5:54 AM MDT 7:32 PM MDT
Astronomical Twilight 5:23 AM MDT 8:03 PM MDT
Moon 2:39 PM MDT 12:15 AM MDT
Length of Visible Light 12h 37m
Length of Day
11h 44m
Tomorrow will be 2m 27s shorter.
First Quarter, 60% of the Moon is Illuminated
Today
First Quarter
Oct 8
Full
Oct 15
Last Quarter
Oct 23
New
Oct 30
First Quarter

Today's Extremes

State Highs State Lows

Community

WunderPhotos

Upload Photos

1,758,294 photos uploaded!

WunderBlogs® & News

Nearby

Snow Depth

Station Depth Elevation
Ute Creek 0 in 10650 ft
Park Reservoir 2 in 9960 ft
Jackwhacker Gulch 0 in 10960 ft
Never Summer 8 in 10280 ft
Nast Lake 0 in 8700 ft

Earthquake Activity

City Distance Mag. Time & Date
Trinidad, Colorado 108 miles 2.9 3:55 AM MDT
2014-09-30
Minimum magnitude displayed is 2.5.

Coastal Water Temperatures

Place Temperature
No Stations Reporting

Nearby Weather Stations